Eldorado — PEEA — position and weather

sailwx.info

Track history (hours):
 
Tides and Currents Weather Stations Pressure Air Temp Water Temp Dewpoint Dewpoint Depression Visibility Wind Speed Wind Dir Waves Ship Positions

Eldorado

Last reported at 2017-May-14 15:44 UTC. Time now 2017-May-23 04:54 UTC.
Position N 18°01' W 063°03'.
Warning: this ship's position is 8 days out of date.

Length 38 m; draft 3 m.

Type: Sailing vessel. MMSI: 244670000.

Date/timePositionNaut miles runAvg speedWind from/ knotsBaromVisibWave heightAir tempDewpointWater temp
2017-May-14 15:44N 18°01' W 063°03'1 3.1
2017-May-14 15:28N 18°01' W 063°04'3 5.6
2017-May-14 14:57N 18°02' W 063°06'2 3.0
2017-May-14 14:27N 18°03' W 063°08'2 2.3
2017-May-14 13:29N 18°01' W 063°06'3 0.1
2017-May-13 15:58N 18°01' W 063°03'1 0.0
2017-May-12 19:20N 18°01' W 063°04'4 5.7
2017-May-12 18:40N 18°03' W 063°08'0 0.6
2017-May-12 18:24N 18°03' W 063°08'1 1.7
2017-May-12 17:43N 18°02' W 063°07'1 5.0
2017-May-12 17:26N 18°01' W 063°06'3 0.1
2017-May-11 19:42N 18°01' W 063°03'1 3.3
2017-May-11 19:24N 18°01' W 063°04'2 5.7
2017-May-11 19:00N 18°01' W 063°06'2 2.7
2017-May-11 18:19N 18°02' W 063°07'0 0.7
2017-May-11 17:59N 18°02' W 063°07'2 4.3
2017-May-11 17:29N 18°01' W 063°05'2 3.4
2017-May-11 16:57N 18°01' W 063°03'0 0.1
2017-May-11 15:28N 18°01' W 063°03'2 4.9
2017-May-11 15:00N 18°01' W 063°06'2 1.7
2017-May-11 13:56N 18°02' W 063°07'2 4.7
2017-May-11 13:30N 18°01' W 063°05'2 0.1
2017-May-10 19:39N 18°01' W 063°04'1 6.4
2017-May-10 19:30N 18°01' W 063°05'3 6.0
2017-May-10 18:59N 18°02' W 063°08'0 0.6
2017-May-10 18:18N 18°03' W 063°08'0 0.0
2017-May-10 17:54N 18°03' W 063°08'0 0.2
2017-May-10 17:21N 18°03' W 063°08'2 5.4
2017-May-10 16:58N 18°01' W 063°06'2 1.4
2017-May-10 15:33N 18°01' W 063°04'1 5.7
2017-May-10 15:26N 18°01' W 063°05'3 6.0
2017-May-10 14:58N 18°02' W 063°07'1 0.6
2017-May-10 14:00N 18°02' W 063°07'2 3.5
2017-May-10 13:26N 18°01' W 063°05'  
2017-May-05 04:36N 18°01' W 063°03'0 0.0
2017-May-05 04:18N 18°01' W 063°03'0 0.0
2017-May-05 04:00N 18°01' W 063°03'  
Track history (hours):
 
Tides and Currents Weather Stations Pressure Air Temp Water Temp Dewpoint Dewpoint Depression Visibility Wind Speed Wind Dir Waves Ship Positions

Eldorado

Last reported at 2017-May-14 15:44 UTC. Time now 2017-May-23 04:54 UTC.
Position N 18°01' W 063°03'.
Warning: this ship's position is 8 days out of date.

Length 38 m; draft 3 m.

Type: Sailing vessel. MMSI: 244670000.

Date/timePositionNaut miles runAvg speedWind from/ knotsBaromVisibWave heightAir tempDewpointWater temp
2017-May-14 15:44N 18°01' W 063°03'1 3.1
2017-May-14 15:28N 18°01' W 063°04'3 5.6
2017-May-14 14:57N 18°02' W 063°06'2 3.0
2017-May-14 14:27N 18°03' W 063°08'2 2.3
2017-May-14 13:29N 18°01' W 063°06'3 0.1
2017-May-13 15:58N 18°01' W 063°03'1 0.0
2017-May-12 19:20N 18°01' W 063°04'4 5.7
2017-May-12 18:40N 18°03' W 063°08'0 0.6
2017-May-12 18:24N 18°03' W 063°08'1 1.7
2017-May-12 17:43N 18°02' W 063°07'1 5.0
2017-May-12 17:26N 18°01' W 063°06'3 0.1
2017-May-11 19:42N 18°01' W 063°03'1 3.3
2017-May-11 19:24N 18°01' W 063°04'2 5.7
2017-May-11 19:00N 18°01' W 063°06'2 2.7
2017-May-11 18:19N 18°02' W 063°07'0 0.7
2017-May-11 17:59N 18°02' W 063°07'2 4.3
2017-May-11 17:29N 18°01' W 063°05'2 3.4
2017-May-11 16:57N 18°01' W 063°03'0 0.1
2017-May-11 15:28N 18°01' W 063°03'2 4.9
2017-May-11 15:00N 18°01' W 063°06'2 1.7
2017-May-11 13:56N 18°02' W 063°07'2 4.7
2017-May-11 13:30N 18°01' W 063°05'2 0.1
2017-May-10 19:39N 18°01' W 063°04'1 6.4
2017-May-10 19:30N 18°01' W 063°05'3 6.0
2017-May-10 18:59N 18°02' W 063°08'0 0.6
2017-May-10 18:18N 18°03' W 063°08'0 0.0
2017-May-10 17:54N 18°03' W 063°08'0 0.2
2017-May-10 17:21N 18°03' W 063°08'2 5.4
2017-May-10 16:58N 18°01' W 063°06'2 1.4
2017-May-10 15:33N 18°01' W 063°04'1 5.7
2017-May-10 15:26N 18°01' W 063°05'3 6.0
2017-May-10 14:58N 18°02' W 063°07'1 0.6
2017-May-10 14:00N 18°02' W 063°07'2 3.5
2017-May-10 13:26N 18°01' W 063°05'  
2017-May-05 04:36N 18°01' W 063°03'0 0.0
2017-May-05 04:18N 18°01' W 063°03'0 0.0
2017-May-05 04:00N 18°01' W 063°03'  

Dump ship's entire track history